Time;durP1;ratioP1;P1;durP2;ratioP2;P2;SDS_P1;SDS_P2;PMS_P1;PMS_P2;Temp;Humidity;BMP_temperature;BMP_pressure;BME280_temperature;BME280_humidity;BME280_pressure;Samples;Min_cycle;Max_cycle;Signal;HPM_P1;HPM_P2
2023/08/20 00:00:53;;;;;;;8.52;7.45;;;22.00;99.90;;;;;;4960901;28;20050;-63
2023/08/20 00:03:25;;;;;;;7.55;6.60;;;22.00;99.90;;;;;;4968663;28;20064;-63
2023/08/20 00:05:52;;;;;;;8.70;6.80;;;21.90;99.90;;;;;;4960642;28;20765;-64
2023/08/20 00:08:23;;;;;;;10.07;8.05;;;21.90;99.90;;;;;;4969558;28;20042;-64
2023/08/20 00:10:55;;;;;;;8.30;7.43;;;21.90;99.90;;;;;;4966677;28;20042;-64
2023/08/20 00:13:28;;;;;;;10.43;7.05;;;21.80;99.90;;;;;;4958170;28;20046;-64
2023/08/20 00:16:00;;;;;;;9.20;7.20;;;21.70;99.90;;;;;;4963905;28;20047;-63
2023/08/20 00:18:32;;;;;;;11.45;8.20;;;21.60;99.90;;;;;;4967884;28;20061;-63
2023/08/20 00:21:05;;;;;;;10.93;7.63;;;21.50;99.90;;;;;;4963442;28;20039;-63
2023/08/20 00:23:37;;;;;;;12.93;7.63;;;21.60;99.90;;;;;;4970358;28;20047;-63
2023/08/20 00:26:10;;;;;;;7.60;6.78;;;21.60;99.90;;;;;;4962923;28;20050;-63
2023/08/20 00:28:42;;;;;;;9.13;6.88;;;21.60;99.90;;;;;;4968964;28;20388;-63
2023/08/20 00:31:14;;;;;;;9.43;7.32;;;21.60;99.90;;;;;;4979347;28;20047;-63
2023/08/20 00:33:45;;;;;;;8.82;6.85;;;21.70;99.90;;;;;;4963169;28;20081;-63
2023/08/20 00:36:12;;;;;;;9.32;7.10;;;21.60;99.90;;;;;;4971704;28;20098;-63
2023/08/20 00:38:39;;;;;;;8.95;7.20;;;21.50;99.90;;;;;;4972784;28;20278;-63
2023/08/20 00:41:11;;;;;;;11.65;7.93;;;21.40;99.90;;;;;;4964528;28;20073;-63
2023/08/20 00:43:43;;;;;;;11.98;6.75;;;21.40;99.90;;;;;;4965871;28;20047;-63
2023/08/20 00:46:15;;;;;;;10.20;6.95;;;21.40;99.90;;;;;;4971702;28;20131;-63
2023/08/20 00:48:49;;;;;;;11.60;7.13;;;21.30;99.90;;;;;;4966655;28;20134;-64
2023/08/20 00:51:22;;;;;;;9.32;6.65;;;21.20;99.90;;;;;;4971993;28;20063;-63
2023/08/20 00:53:55;;;;;;;11.65;7.45;;;21.20;99.90;;;;;;4982077;28;20085;-64
2023/08/20 00:56:27;;;;;;;11.55;8.60;;;21.10;99.90;;;;;;4961243;28;20051;-63
2023/08/20 00:58:59;;;;;;;10.38;6.90;;;21.10;99.90;;;;;;4970844;28;20054;-63
2023/08/20 01:01:31;;;;;;;14.23;8.80;;;21.00;99.90;;;;;;4970430;28;20502;-63
2023/08/20 01:03:58;;;;;;;9.63;7.50;;;21.00;99.90;;;;;;4978855;28;20073;-63
2023/08/20 01:06:36;;;;;;;9.38;7.10;;;20.90;99.90;;;;;;4964304;28;20118;-63
2023/08/20 01:09:32;;;;;;;8.55;7.20;;;21.00;99.90;;;;;;4966242;28;20048;-63
2023/08/20 01:12:06;;;;;;;9.85;7.18;;;21.00;99.90;;;;;;4965902;28;20137;-63
2023/08/20 01:14:38;;;;;;;10.95;7.03;;;20.90;99.90;;;;;;4972186;28;20043;-63
2023/08/20 01:17:10;;;;;;;11.20;6.97;;;20.80;99.90;;;;;;4970261;28;20055;-63
2023/08/20 01:19:42;;;;;;;9.20;6.65;;;20.80;99.90;;;;;;4962221;28;20422;-63
2023/08/20 01:22:23;;;;;;;8.98;7.40;;;20.80;99.90;;;;;;4974442;28;20047;-63
2023/08/20 01:25:10;;;;;;;12.52;7.82;;;20.80;99.90;;;;;;4964115;28;20062;-63
2023/08/20 01:28:07;;;;;;;11.10;8.02;;;20.70;99.90;;;;;;4972081;28;20054;-63
2023/08/20 01:30:35;;;;;;;8.73;7.43;;;20.60;99.90;;;;;;4969316;28;20055;-63
2023/08/20 01:33:07;;;;;;;10.80;7.70;;;20.50;99.90;;;;;;4964149;28;20142;-63
2023/08/20 01:35:39;;;;;;;10.43;7.95;;;20.50;99.90;;;;;;4979753;28;20415;-63
2023/08/20 01:38:16;;;;;;;10.07;7.63;;;20.50;99.90;;;;;;4970406;28;20042;-63
2023/08/20 01:40:49;;;;;;;13.05;7.20;;;20.40;99.90;;;;;;4963820;28;20054;-63
2023/08/20 01:43:20;;;;;;;13.55;7.45;;;20.50;99.90;;;;;;4962137;28;20047;-63
2023/08/20 01:45:48;;;;;;;11.57;7.72;;;20.50;99.90;;;;;;4970080;28;20579;-63
2023/08/20 01:48:15;;;;;;;11.35;7.53;;;20.50;99.90;;;;;;4969790;28;20067;-64
2023/08/20 01:50:47;;;;;;;13.77;7.65;;;20.40;99.90;;;;;;4969519;28;20062;-63
2023/08/20 01:53:14;;;;;;;11.45;7.05;;;20.40;99.90;;;;;;4971009;28;20134;-63
2023/08/20 01:55:41;;;;;;;9.38;7.90;;;20.40;99.90;;;;;;4971848;28;20670;-65
2023/08/20 01:58:15;;;;;;;11.38;7.55;;;20.30;99.90;;;;;;4980228;28;20059;-65
2023/08/20 02:00:47;;;;;;;10.52;7.65;;;20.40;99.90;;;;;;4971121;28;20069;-65
2023/08/20 02:03:19;;;;;;;10.73;6.97;;;20.50;99.90;;;;;;4964373;28;20043;-64
2023/08/20 02:05:51;;;;;;;8.27;7.43;;;20.40;99.90;;;;;;4946425;28;20079;-65
2023/08/20 02:08:23;;;;;;;10.63;6.90;;;20.40;99.90;;;;;;4969047;28;20047;-65
2023/08/20 02:11:04;;;;;;;7.97;7.18;;;20.40;99.90;;;;;;4969805;28;20588;-65
2023/08/20 02:13:37;;;;;;;11.90;8.40;;;20.40;99.90;;;;;;4950995;28;20534;-65
2023/08/20 02:16:09;;;;;;;10.52;7.85;;;20.40;99.90;;;;;;4956032;28;20041;-65
2023/08/20 02:18:37;;;;;;;14.43;8.40;;;20.30;99.90;;;;;;4966592;28;20031;-65
2023/08/20 02:21:08;;;;;;;11.95;8.00;;;20.30;99.90;;;;;;4949763;28;20038;-65
2023/08/20 02:23:35;;;;;;;9.18;7.65;;;20.20;99.90;;;;;;4968499;28;20154;-65
2023/08/20 02:26:07;;;;;;;9.90;8.18;;;20.20;99.90;;;;;;4964418;28;20129;-65
2023/08/20 02:28:39;;;;;;;12.40;8.15;;;20.10;99.90;;;;;;4962286;28;20468;-65
2023/08/20 02:31:11;;;;;;;11.23;8.20;;;20.10;99.90;;;;;;4956718;28;20061;-65
2023/08/20 02:33:42;;;;;;;8.52;7.70;;;20.00;99.90;;;;;;4963230;28;20126;-65
2023/08/20 02:36:12;;;;;;;7.47;6.63;;;20.00;99.90;;;;;;4967681;28;20153;-65
2023/08/20 02:38:45;;;;;;;11.30;7.30;;;20.00;99.90;;;;;;4970412;28;20035;-65
2023/08/20 02:41:12;;;;;;;8.27;6.72;;;20.00;99.90;;;;;;4965368;28;20045;-65
2023/08/20 02:43:44;;;;;;;9.35;7.05;;;19.90;99.90;;;;;;4968028;28;20038;-65
2023/08/20 02:46:16;;;;;;;8.65;7.03;;;19.80;99.90;;;;;;4968001;28;20053;-65
2023/08/20 02:48:48;;;;;;;10.48;7.82;;;19.90;99.90;;;;;;4970133;28;20054;-65
2023/08/20 02:51:14;;;;;;;9.95;7.65;;;19.80;99.90;;;;;;4969044;28;20353;-65
2023/08/20 02:53:47;;;;;;;9.50;6.95;;;19.80;99.90;;;;;;4969363;28;20050;-65
2023/08/20 02:56:19;;;;;;;10.05;7.05;;;19.80;99.90;;;;;;4957231;28;20118;-65
2023/08/20 02:58:51;;;;;;;10.45;8.30;;;19.80;99.90;;;;;;4969877;28;20043;-65
2023/08/20 03:01:23;;;;;;;11.45;7.85;;;19.70;99.90;;;;;;4969818;28;20050;-65
2023/08/20 03:03:56;;;;;;;11.60;7.93;;;19.70;99.90;;;;;;4970094;28;20074;-65
2023/08/20 03:06:27;;;;;;;11.55;8.20;;;19.70;99.90;;;;;;4969626;28;20540;-65
2023/08/20 03:08:59;;;;;;;10.15;8.00;;;19.70;99.90;;;;;;4970569;28;20188;-65
2023/08/20 03:11:31;;;;;;;9.25;7.20;;;19.70;99.90;;;;;;4980933;28;20059;-65
2023/08/20 03:14:03;;;;;;;11.18;7.57;;;19.60;99.90;;;;;;4970207;28;20058;-66
2023/08/20 03:16:35;;;;;;;11.63;8.00;;;19.60;99.90;;;;;;4967970;28;20082;-65
2023/08/20 03:19:07;;;;;;;8.65;7.85;;;19.60;99.90;;;;;;4960674;28;20046;-65
2023/08/20 03:21:34;;;;;;;10.63;8.90;;;19.60;99.90;;;;;;4973443;28;20038;-65
2023/08/20 03:24:07;;;;;;;9.95;7.35;;;19.70;99.90;;;;;;4970247;28;20499;-65
2023/08/20 03:26:39;;;;;;;9.55;7.43;;;19.70;99.90;;;;;;4970034;28;20038;-65
2023/08/20 03:29:10;;;;;;;7.72;6.95;;;19.70;99.90;;;;;;4971314;28;20599;-65
2023/08/20 03:31:42;;;;;;;10.45;7.13;;;19.70;99.90;;;;;;4981178;28;20080;-65
2023/08/20 03:34:14;;;;;;;8.23;7.35;;;19.70;99.90;;;;;;4966219;28;20047;-65
2023/08/20 03:36:46;;;;;;;8.50;7.22;;;19.70;99.90;;;;;;4968625;28;20134;-65
2023/08/20 03:39:19;;;;;;;14.10;7.60;;;19.70;99.90;;;;;;4958049;28;20099;-65
2023/08/20 03:41:52;;;;;;;10.93;8.77;;;19.80;99.90;;;;;;4969006;28;20043;-65
2023/08/20 03:44:24;;;;;;;9.15;7.68;;;19.70;99.90;;;;;;4978264;28;20126;-65
2023/08/20 03:46:56;;;;;;;9.02;7.55;;;19.70;99.90;;;;;;4963518;28;20051;-65
2023/08/20 03:49:28;;;;;;;9.75;8.02;;;19.70;99.90;;;;;;4953677;28;20070;-65
2023/08/20 03:52:01;;;;;;;11.73;8.20;;;19.70;99.90;;;;;;4976611;28;20066;-65
2023/08/20 03:54:29;;;;;;;9.85;7.88;;;19.70;99.90;;;;;;4969804;28;20052;-65
2023/08/20 03:57:01;;;;;;;7.80;7.03;;;19.60;99.90;;;;;;4969068;28;20042;-65
2023/08/20 03:59:33;;;;;;;9.65;7.05;;;19.50;99.90;;;;;;4967579;28;20133;-65
2023/08/20 04:02:05;;;;;;;10.27;6.60;;;19.50;99.90;;;;;;4959809;28;20463;-65
2023/08/20 04:04:37;;;;;;;9.38;6.85;;;19.50;99.90;;;;;;4967882;28;20492;-65
2023/08/20 04:07:09;;;;;;;9.73;7.18;;;19.50;99.90;;;;;;4960442;28;20097;-65
2023/08/20 04:09:38;;;;;;;9.07;7.55;;;19.50;99.90;;;;;;4969300;28;20043;-66
2023/08/20 04:12:11;;;;;;;8.95;7.22;;;19.50;99.90;;;;;;4967165;28;20055;-65
2023/08/20 04:14:44;;;;;;;9.23;7.55;;;19.50;99.90;;;;;;4967906;28;20042;-65
2023/08/20 04:17:10;;;;;;;7.40;6.70;;;19.50;99.90;;;;;;4958517;28;20043;-65
2023/08/20 04:19:42;;;;;;;10.88;6.95;;;19.50;99.90;;;;;;4981164;28;20126;-65
2023/08/20 04:22:09;;;;;;;9.52;6.95;;;19.50;99.90;;;;;;4954649;28;20117;-65
2023/08/20 04:24:36;;;;;;;7.75;6.93;;;19.50;99.90;;;;;;4957784;28;20046;-65
2023/08/20 04:27:08;;;;;;;9.57;7.00;;;19.50;99.90;;;;;;4976297;28;20043;-65
2023/08/20 04:29:42;;;;;;;7.72;6.90;;;19.40;99.90;;;;;;4958694;28;20053;-66
2023/08/20 04:32:14;;;;;;;8.38;6.85;;;19.40;99.90;;;;;;4970624;28;20051;-65
2023/08/20 04:34:47;;;;;;;8.63;6.68;;;19.30;99.90;;;;;;4952900;28;20070;-65
2023/08/20 04:37:20;;;;;;;12.40;6.80;;;19.30;99.90;;;;;;4976993;28;20049;-65
2023/08/20 04:39:47;;;;;;;7.45;6.43;;;19.30;99.90;;;;;;4967855;28;20130;-65
2023/08/20 04:42:19;;;;;;;9.43;7.00;;;19.30;99.90;;;;;;4960385;28;20035;-66
2023/08/20 04:44:46;;;;;;;10.23;7.28;;;19.40;99.90;;;;;;4962197;28;20039;-65
2023/08/20 04:47:18;;;;;;;7.35;6.65;;;19.30;99.90;;;;;;4957856;28;20074;-65
2023/08/20 04:49:51;;;;;;;9.68;6.82;;;19.30;99.90;;;;;;4968266;28;20036;-65
2023/08/20 04:52:23;;;;;;;9.68;7.13;;;19.40;99.90;;;;;;4967984;28;20049;-65
2023/08/20 04:54:55;;;;;;;13.50;8.82;;;19.40;99.90;;;;;;4968193;28;20053;-65
2023/08/20 04:57:21;;;;;;;10.18;8.35;;;19.40;99.90;;;;;;4969032;28;20043;-65
2023/08/20 04:59:55;;;;;;;7.63;6.82;;;19.40;99.90;;;;;;4967253;28;20471;-65
2023/08/20 05:02:31;;;;;;;8.63;7.47;;;19.30;99.90;;;;;;4959303;28;20046;-65
2023/08/20 05:05:04;;;;;;;9.07;6.88;;;19.30;99.90;;;;;;4954761;28;20043;-65
2023/08/20 05:07:37;;;;;;;;;;;19.30;99.90;;;;;;4968038;28;20543;-65
2023/08/20 05:10:09;;;;;;;8.65;7.50;;;19.30;99.90;;;;;;4973367;28;19937;-65
2023/08/20 05:12:41;;;;;;;11.80;7.70;;;19.30;99.90;;;;;;4968535;28;20043;-65
2023/08/20 05:15:08;;;;;;;10.23;7.82;;;19.40;99.90;;;;;;4964634;28;20071;-65
2023/08/20 05:17:35;;;;;;;10.10;8.40;;;19.40;99.90;;;;;;4972174;28;20043;-67
2023/08/20 05:20:08;;;;;;;9.10;7.93;;;19.50;99.90;;;;;;4969131;28;20051;-65
2023/08/20 05:22:41;;;;;;;10.13;9.13;;;19.50;99.90;;;;;;4980542;28;20042;-65
2023/08/20 05:25:13;;;;;;;10.88;8.57;;;19.50;99.90;;;;;;4971228;28;20038;-65
2023/08/20 05:27:46;;;;;;;10.32;8.48;;;19.50;99.90;;;;;;4969793;28;20102;-66
2023/08/20 05:30:18;;;;;;;9.70;8.20;;;19.50;99.90;;;;;;4970609;28;20098;-71
2023/08/20 05:32:49;;;;;;;10.85;8.90;;;19.60;99.90;;;;;;4979000;28;20129;-66
2023/08/20 05:35:22;;;;;;;9.02;8.13;;;19.60;99.90;;;;;;4972308;28;20043;-66
2023/08/20 05:37:53;;;;;;;8.88;7.60;;;19.60;99.90;;;;;;4971759;28;20031;-66
2023/08/20 05:40:25;;;;;;;8.82;7.65;;;19.70;99.90;;;;;;4956852;28;20066;-66
2023/08/20 05:42:58;;;;;;;8.60;7.38;;;19.70;99.90;;;;;;4972498;28;20507;-67
2023/08/20 05:45:30;;;;;;;11.00;7.88;;;19.70;99.90;;;;;;4965746;28;20158;-66
2023/08/20 05:48:04;;;;;;;8.48;7.72;;;19.70;99.90;;;;;;4953660;28;20042;-66
2023/08/20 05:50:37;;;;;;;;;;;19.80;99.90;;;;;;4972250;28;20055;-67
2023/08/20 05:53:09;;;;;;;9.68;7.38;;;19.80;99.90;;;;;;4968498;28;19922;-66
2023/08/20 05:55:37;;;;;;;12.10;9.88;;;19.90;99.90;;;;;;4972297;28;20035;-66
2023/08/20 05:58:09;;;;;;;17.42;9.65;;;19.90;99.90;;;;;;4953037;28;20407;-66
2023/08/20 06:00:41;;;;;;;14.43;10.23;;;20.00;99.90;;;;;;4971548;28;20051;-67
2023/08/20 06:03:15;;;;;;;13.77;10.23;;;20.00;99.90;;;;;;4983381;28;20054;-66
2023/08/20 06:05:47;;;;;;;14.48;11.02;;;20.00;99.90;;;;;;4959312;28;20047;-68
2023/08/20 06:08:18;;;;;;;15.50;10.88;;;20.10;99.90;;;;;;4946753;28;20036;-66
2023/08/20 06:10:51;;;;;;;14.75;10.73;;;20.10;99.90;;;;;;4935462;29;20047;-66
2023/08/20 06:13:22;;;;;;;14.20;11.63;;;20.20;99.90;;;;;;4929206;29;20066;-67
2023/08/20 06:15:54;;;;;;;12.40;10.68;;;20.20;99.90;;;;;;4938164;29;20040;-66
2023/08/20 06:18:21;;;;;;;17.20;11.35;;;20.20;99.90;;;;;;4942488;29;20039;-66
2023/08/20 06:20:48;;;;;;;14.40;10.93;;;20.30;99.90;;;;;;4946692;28;20035;-66
2023/08/20 06:23:20;;;;;;;12.38;10.60;;;20.30;99.90;;;;;;4946917;29;20077;-66
2023/08/20 06:25:52;;;;;;;13.43;10.30;;;20.40;99.90;;;;;;4948099;29;20047;-66
2023/08/20 06:28:19;;;;;;;14.50;11.23;;;20.50;99.90;;;;;;4946443;28;20185;-65
2023/08/20 06:30:46;;;;;;;15.38;11.80;;;20.50;99.90;;;;;;4962418;28;20516;-66
2023/08/20 06:33:18;;;;;;;16.08;11.68;;;20.60;99.90;;;;;;4943065;29;20043;-66
2023/08/20 06:35:50;;;;;;;13.48;11.65;;;20.70;99.90;;;;;;4967505;28;20500;-66
2023/08/20 06:38:22;;;;;;;14.07;12.55;;;20.80;99.90;;;;;;4946456;29;20049;-66
2023/08/20 06:40:55;;;;;;;13.40;11.38;;;20.80;99.90;;;;;;4939108;28;20504;-66
2023/08/20 06:43:27;;;;;;;14.23;11.77;;;20.90;99.90;;;;;;4974406;28;20032;-66
2023/08/20 06:45:59;;;;;;;14.23;12.65;;;21.00;99.90;;;;;;4961838;28;20050;-66
2023/08/20 06:48:30;;;;;;;13.80;12.40;;;21.10;99.90;;;;;;4947508;29;20504;-66
2023/08/20 06:51:13;;;;;;;12.02;10.82;;;21.10;99.90;;;;;;4944295;29;20405;-66
2023/08/20 06:53:44;;;;;;;12.82;11.52;;;21.20;99.90;;;;;;4945447;28;20780;-66
2023/08/20 06:56:16;;;;;;;15.52;12.15;;;21.30;99.90;;;;;;4959426;28;20043;-66
2023/08/20 06:58:48;;;;;;;14.38;12.90;;;21.40;99.90;;;;;;4943790;29;20048;-66
2023/08/20 07:01:20;;;;;;;19.60;14.43;;;21.40;99.90;;;;;;4945852;29;20620;-64
2023/08/20 07:03:48;;;;;;;15.30;13.40;;;21.50;99.90;;;;;;4938543;29;20036;-64
2023/08/20 07:06:20;;;;;;;14.57;12.60;;;21.60;99.90;;;;;;4949837;29;20045;-64
2023/08/20 07:08:52;;;;;;;14.95;13.43;;;21.60;99.90;;;;;;4959484;28;20049;-65
2023/08/20 07:11:23;;;;;;;16.20;13.48;;;21.70;99.90;;;;;;4949312;28;20066;-64
2023/08/20 07:13:55;;;;;;;16.25;14.40;;;21.80;99.90;;;;;;4960951;28;20047;-64
2023/08/20 07:16:22;;;;;;;14.48;11.82;;;21.90;99.90;;;;;;4949636;29;20650;-64
2023/08/20 07:18:54;;;;;;;16.63;12.85;;;22.00;99.90;;;;;;4943811;29;20050;-64
2023/08/20 07:21:26;;;;;;;13.82;11.05;;;22.10;99.90;;;;;;4964815;28;20059;-64
2023/08/20 07:23:58;;;;;;;17.33;13.23;;;22.20;99.90;;;;;;4949410;29;20054;-64
2023/08/20 07:26:30;;;;;;;15.30;12.07;;;22.30;99.90;;;;;;4940740;29;20427;-65
2023/08/20 07:29:02;;;;;;;16.08;14.38;;;22.40;99.90;;;;;;4949531;29;20047;-64
2023/08/20 07:31:34;;;;;;;19.75;14.63;;;22.50;99.90;;;;;;4940218;28;20421;-64
2023/08/20 07:34:05;;;;;;;18.25;14.80;;;22.60;99.90;;;;;;4948738;28;20059;-64
2023/08/20 07:36:38;;;;;;;16.20;14.05;;;22.70;99.90;;;;;;4942850;29;20059;-64
2023/08/20 07:39:10;;;;;;;20.37;14.87;;;22.80;99.90;;;;;;4945905;28;20118;-64
2023/08/20 07:41:37;;;;;;;15.88;14.27;;;22.80;99.90;;;;;;4944843;28;20035;-64
2023/08/20 07:44:09;;;;;;;16.65;14.77;;;22.90;99.90;;;;;;4969135;28;20048;-64
2023/08/20 07:46:41;;;;;;;17.02;15.35;;;23.00;99.90;;;;;;4935838;28;20520;-64
2023/08/20 07:49:13;;;;;;;19.65;15.73;;;23.10;99.90;;;;;;4938853;29;20505;-64
2023/08/20 07:51:44;;;;;;;17.17;14.48;;;23.20;99.90;;;;;;4940999;29;20050;-64
2023/08/20 07:54:16;;;;;;;17.55;15.85;;;23.30;99.90;;;;;;4946853;29;20122;-64
2023/08/20 07:56:48;;;;;;;16.92;14.50;;;23.40;99.90;;;;;;4943580;29;20039;-64
2023/08/20 07:59:20;;;;;;;15.18;13.55;;;23.50;99.90;;;;;;4948501;29;20035;-64
2023/08/20 08:01:52;;;;;;;16.42;14.60;;;23.50;99.90;;;;;;4965981;28;20067;-64
2023/08/20 08:04:24;;;;;;;16.60;14.93;;;23.70;99.90;;;;;;4944390;29;20042;-64
2023/08/20 08:06:55;;;;;;;18.67;14.32;;;23.70;99.90;;;;;;4943881;29;20039;-64
2023/08/20 08:09:31;;;;;;;16.98;14.05;;;23.90;99.90;;;;;;4939773;29;20050;-64
2023/08/20 08:12:04;;;;;;;14.98;13.05;;;24.00;99.90;;;;;;4953114;28;20051;-64
2023/08/20 08:14:36;;;;;;;18.23;14.15;;;24.00;99.90;;;;;;4942948;29;20045;-65
2023/08/20 08:17:08;;;;;;;16.90;14.13;;;24.20;99.90;;;;;;4959909;28;20047;-64
2023/08/20 08:19:40;;;;;;;15.88;14.30;;;24.20;99.90;;;;;;4943239;29;20067;-64
2023/08/20 08:22:12;;;;;;;14.70;13.30;;;24.40;99.90;;;;;;4944073;28;20134;-64
2023/08/20 08:24:43;;;;;;;15.45;13.60;;;24.50;99.90;;;;;;4948205;29;20043;-64
2023/08/20 08:27:15;;;;;;;15.82;12.90;;;24.50;99.90;;;;;;4976755;28;20044;-64
2023/08/20 08:29:44;;;;;;;14.00;12.60;;;24.70;99.90;;;;;;4939493;29;20087;-64
2023/08/20 08:32:16;;;;;;;18.75;12.77;;;24.80;99.90;;;;;;4939886;29;20055;-66
2023/08/20 08:34:47;;;;;;;15.00;13.02;;;24.80;99.90;;;;;;4937771;29;20588;-66
2023/08/20 08:37:19;;;;;;;12.73;11.43;;;25.00;99.90;;;;;;4944378;29;20058;-66
2023/08/20 08:39:51;;;;;;;15.48;13.40;;;25.10;99.90;;;;;;4977714;28;20036;-66
2023/08/20 08:42:21;;;;;;;13.60;12.27;;;25.20;99.90;;;;;;4944318;29;20147;-67
2023/08/20 08:44:55;;;;;;;12.88;11.60;;;25.30;99.90;;;;;;4959014;28;20044;-67
2023/08/20 08:47:27;;;;;;;17.60;12.43;;;25.40;99.90;;;;;;4978399;28;20543;-66
2023/08/20 08:49:58;;;;;;;13.93;12.43;;;25.50;99.90;;;;;;4981774;28;20058;-66
2023/08/20 08:52:31;;;;;;;13.15;11.75;;;25.60;99.90;;;;;;4950994;29;20043;-67
2023/08/20 08:55:05;;;;;;;13.15;11.10;;;25.70;99.90;;;;;;4942738;29;20048;-66
2023/08/20 08:57:37;;;;;;;13.13;11.20;;;25.80;99.90;;;;;;4957770;28;20532;-67
2023/08/20 09:00:09;;;;;;;18.48;13.25;;;26.00;99.90;;;;;;4944939;29;20127;-66
2023/08/20 09:02:41;;;;;;;13.23;11.90;;;26.10;99.90;;;;;;4962315;28;20126;-66
2023/08/20 09:05:14;;;;;;;13.30;12.02;;;26.20;99.90;;;;;;4961818;28;20043;-66
2023/08/20 09:07:46;;;;;;;;;;;26.30;99.90;;;;;;4944564;28;20119;-66
2023/08/20 09:10:18;;;;;;;13.60;11.52;;;26.40;99.90;;;;;;4942019;29;19923;-66
2023/08/20 09:12:50;;;;;;;12.90;11.60;;;26.40;99.90;;;;;;4981604;28;20054;-65
2023/08/20 09:15:31;;;;;;;16.30;11.63;;;26.50;99.90;;;;;;4945586;29;20048;-67
2023/08/20 09:18:04;;;;;;;11.98;10.50;;;26.60;99.90;;;;;;4943114;29;20303;-67
2023/08/20 09:20:35;;;;;;;13.70;10.90;;;26.70;99.90;;;;;;4944653;29;20053;-67
2023/08/20 09:23:13;;;;;;;15.98;12.48;;;26.80;99.90;;;;;;4958002;28;20130;-66
2023/08/20 09:25:46;;;;;;;13.77;10.70;;;26.80;99.90;;;;;;4952384;29;20062;-66
2023/08/20 09:28:18;;;;;;;14.95;11.60;;;26.90;99.90;;;;;;4946858;29;20051;-66
2023/08/20 09:30:57;;;;;;;13.13;10.68;;;27.00;99.90;;;;;;4947158;29;20046;-67
2023/08/20 09:33:29;;;;;;;11.75;10.55;;;27.10;99.90;;;;;;4970317;28;20051;-67
2023/08/20 09:36:04;;;;;;;12.50;10.30;;;27.20;99.90;;;;;;4964644;28;20043;-67
2023/08/20 09:38:39;;;;;;;12.27;10.85;;;27.30;99.90;;;;;;4949921;29;20151;-67
2023/08/20 09:41:12;;;;;;;14.77;9.57;;;27.40;99.90;;;;;;4951372;29;20047;-67
2023/08/20 09:43:46;;;;;;;19.77;11.05;;;27.50;99.90;;;;;;4943129;28;20059;-66
2023/08/20 09:46:20;;;;;;;11.10;9.95;;;27.70;99.90;;;;;;4948399;29;20054;-66
2023/08/20 09:48:50;;;;;;;12.18;11.00;;;27.80;99.90;;;;;;4945304;28;20050;-66
2023/08/20 09:51:28;;;;;;;12.38;10.52;;;27.90;99.90;;;;;;4947790;29;20039;-66
2023/08/20 09:54:13;;;;;;;11.02;8.95;;;28.00;99.90;;;;;;4941332;29;20129;-67
2023/08/20 09:56:47;;;;;;;10.50;9.35;;;28.10;99.90;;;;;;4944323;28;20150;-67
2023/08/20 09:59:19;;;;;;;16.02;11.48;;;28.20;99.90;;;;;;4938157;29;20771;-66
2023/08/20 10:01:51;;;;;;;13.83;9.90;;;28.30;99.90;;;;;;4944810;28;20038;-66
2023/08/20 10:04:24;;;;;;;12.83;10.53;;;28.40;99.90;;;;;;4944269;28;20127;-66
2023/08/20 10:06:58;;;;;;;11.32;9.82;;;28.50;99.90;;;;;;4947624;29;20051;-67
2023/08/20 10:09:25;;;;;;;12.65;10.23;;;28.50;99.90;;;;;;4977226;28;20139;-67
2023/08/20 10:11:57;;;;;;;15.43;9.77;;;28.60;99.90;;;;;;4945255;29;20062;-66
2023/08/20 10:14:29;;;;;;;10.32;9.32;;;28.70;99.90;;;;;;4945601;28;20512;-67
2023/08/20 10:17:08;;;;;;;9.30;8.32;;;28.80;99.90;;;;;;4942761;29;20039;-66
2023/08/20 10:19:41;;;;;;;16.00;9.50;;;28.80;99.90;;;;;;4943175;29;20039;-67
2023/08/20 10:22:13;;;;;;;11.38;9.65;;;28.90;99.90;;;;;;4939676;29;20040;-67
2023/08/20 10:24:52;;;;;;;11.02;8.45;;;29.00;99.90;;;;;;4961589;28;20126;-67
2023/08/20 10:27:31;;;;;;;9.40;8.32;;;29.10;99.90;;;;;;4960520;28;20583;-67
2023/08/20 10:30:26;;;;;;;11.73;8.35;;;29.10;99.90;;;;;;4944561;29;20051;-67
2023/08/20 10:32:58;;;;;;;12.02;7.93;;;29.20;99.90;;;;;;4945924;29;20044;-67
2023/08/20 10:35:39;;;;;;;10.40;7.22;;;29.40;99.90;;;;;;4946993;29;20050;-67
2023/08/20 10:38:16;;;;;;;11.52;8.00;;;29.40;99.90;;;;;;4946224;29;20044;-66
2023/08/20 10:40:58;;;;;;;14.75;7.95;;;29.50;99.90;;;;;;4943323;28;20062;-67
2023/08/20 10:43:40;;;;;;;8.50;7.50;;;29.60;99.90;;;;;;4939095;29;20039;-67
2023/08/20 10:46:20;;;;;;;8.65;6.93;;;29.70;99.90;;;;;;4939632;29;20043;-67
2023/08/20 10:48:53;;;;;;;7.90;7.10;;;29.70;99.90;;;;;;4944177;29;20159;-67
2023/08/20 10:51:39;;;;;;;11.10;7.35;;;29.80;99.90;;;;;;4963164;28;20051;-67
2023/08/20 10:54:10;;;;;;;7.10;6.40;;;29.90;99.90;;;;;;4976242;28;20090;-67
2023/08/20 10:56:55;;;;;;;11.00;7.25;;;30.00;99.90;;;;;;4960031;28;20412;-67
2023/08/20 10:59:22;;;;;;;9.43;6.25;;;30.10;99.90;;;;;;4946810;29;20066;-67
2023/08/20 11:01:58;;;;;;;8.80;6.07;;;30.10;99.90;;;;;;4944044;28;20043;-67
2023/08/20 11:04:33;;;;;;;11.65;6.50;;;30.10;99.90;;;;;;4941258;29;20043;-67
2023/08/20 11:07:05;;;;;;;9.52;6.70;;;30.20;99.90;;;;;;4938157;29;20047;-66
2023/08/20 11:09:39;;;;;;;6.82;6.05;;;30.30;99.90;;;;;;4953656;28;20054;-67
2023/08/20 11:12:14;;;;;;;9.30;7.10;;;30.30;99.90;;;;;;4950315;29;20035;-67
2023/08/20 11:14:46;;;;;;;7.32;5.15;;;30.50;99.90;;;;;;4943233;28;20520;-67
2023/08/20 11:17:18;;;;;;;9.23;6.18;;;30.50;99.90;;;;;;4950282;29;20035;-67
2023/08/20 11:19:51;;;;;;;9.50;6.03;;;30.60;99.90;;;;;;4945008;28;20043;-67
2023/08/20 11:22:22;;;;;;;7.85;5.78;;;30.60;99.90;;;;;;4945798;29;20123;-67
2023/08/20 11:24:56;;;;;;;7.80;5.97;;;30.80;99.90;;;;;;4943272;28;20066;-67
2023/08/20 11:27:27;;;;;;;6.97;5.72;;;30.80;99.90;;;;;;4941964;29;20579;-66
2023/08/20 11:29:58;;;;;;;6.80;5.25;;;31.00;99.90;;;;;;4942649;29;20043;-67
2023/08/20 11:32:30;;;;;;;6.93;5.47;;;31.10;99.90;;;;;;4936683;29;20508;-67
2023/08/20 11:35:03;;;;;;;7.75;5.65;;;31.20;99.90;;;;;;4975548;28;20638;-67
2023/08/20 11:37:30;;;;;;;6.65;5.38;;;31.30;99.90;;;;;;4946935;29;20143;-67
2023/08/20 11:39:57;;;;;;;6.95;5.70;;;31.40;99.90;;;;;;4947391;29;20035;-67
2023/08/20 11:42:30;;;;;;;7.93;5.03;;;31.50;99.90;;;;;;4946893;29;20050;-67
2023/08/20 11:45:02;;;;;;;;;;;31.60;99.90;;;;;;4945788;29;20047;-67
2023/08/20 11:47:40;;;;;;;7.00;5.30;;;31.50;99.90;;;;;;4944273;29;19930;-67
2023/08/20 11:50:12;;;;;;;5.78;5.20;;;31.60;99.90;;;;;;4970424;28;20054;-67
2023/08/20 11:52:44;;;;;;;7.10;6.40;;;31.70;99.90;;;;;;4938099;29;20071;-66
2023/08/20 11:55:23;;;;;;;9.60;5.70;;;31.80;99.90;;;;;;4939651;28;20054;-67
2023/08/20 11:57:53;;;;;;;5.47;4.85;;;31.80;99.90;;;;;;4947490;28;20378;-66
2023/08/20 12:00:30;;;;;;;6.68;5.28;;;31.90;99.90;;;;;;4942871;28;20066;-67
2023/08/20 12:02:58;;;;;;;7.73;5.07;;;32.00;99.90;;;;;;4943037;29;20039;-67
2023/08/20 12:05:30;;;;;;;6.35;5.10;;;32.00;99.90;;;;;;4942122;28;20059;-67
2023/08/20 12:08:04;;;;;;;5.95;4.78;;;32.10;99.90;;;;;;4941849;28;20050;-67
2023/08/20 12:10:42;;;;;;;7.78;5.13;;;32.20;99.90;;;;;;4961078;28;20050;-69
2023/08/20 12:13:09;;;;;;;8.30;5.10;;;32.20;99.90;;;;;;4940841;29;20047;-69
2023/08/20 12:15:41;;;;;;;9.47;4.67;;;32.20;99.90;;;;;;4938582;29;20062;-69
2023/08/20 12:18:13;;;;;;;8.20;5.68;;;32.30;99.90;;;;;;4947757;29;20414;-69
2023/08/20 12:20:45;;;;;;;9.30;4.90;;;32.30;99.90;;;;;;4938997;28;20496;-68
2023/08/20 12:23:17;;;;;;;8.73;5.32;;;32.30;99.90;;;;;;4945480;28;20043;-68
2023/08/20 12:25:52;;;;;;;6.60;5.00;;;32.30;99.90;;;;;;4944179;29;20040;-69
2023/08/20 12:28:26;;;;;;;7.47;4.72;;;32.30;99.90;;;;;;4947073;29;20035;-68
2023/08/20 12:30:58;;;;;;;8.52;4.60;;;32.50;99.90;;;;;;4944807;29;20049;-68
2023/08/20 12:33:29;;;;;;;5.72;5.07;;;32.50;99.90;;;;;;4942567;28;20110;-69
2023/08/20 12:36:02;;;;;;;5.30;4.80;;;32.60;99.90;;;;;;4948411;29;20048;-69
2023/08/20 12:38:34;;;;;;;8.50;4.60;;;32.70;99.90;;;;;;4938781;29;20307;-69
2023/08/20 12:41:06;;;;;;;;;;;32.70;99.90;;;;;;4948808;29;20052;-69
2023/08/20 12:43:38;;;;;;;6.25;4.72;;;32.80;99.90;;;;;;4939322;29;19930;-69
2023/08/20 12:46:10;;;;;;;7.13;4.55;;;32.80;99.90;;;;;;4946341;28;20130;-69
2023/08/20 12:48:42;;;;;;;5.32;4.32;;;32.90;99.90;;;;;;4945151;29;20397;-69
2023/08/20 12:51:17;;;;;;;6.28;4.18;;;32.90;99.70;;;;;;4946186;29;20052;-69
2023/08/20 12:53:49;;;;;;;7.95;4.60;;;33.00;99.70;;;;;;4945912;28;20047;-69
2023/08/20 12:56:16;;;;;;;6.80;4.30;;;33.10;99.90;;;;;;4943852;29;20475;-69
2023/08/20 12:58:48;;;;;;;5.57;4.15;;;33.10;99.00;;;;;;4940275;28;20035;-69
2023/08/20 13:01:19;;;;;;;6.05;4.78;;;33.30;98.50;;;;;;4937750;29;20090;-68
2023/08/20 13:03:51;;;;;;;6.43;4.50;;;33.30;97.20;;;;;;4971848;28;20054;-69
2023/08/20 13:06:23;;;;;;;7.97;4.43;;;33.40;97.90;;;;;;4953225;28;20039;-69